createdAt,value
2022-11-09T00:00:27.409Z,20.00
2022-11-09T00:03:03.626Z,19.90
2022-11-09T00:05:35.968Z,16.50
2022-11-09T00:08:11.486Z,18.50
2022-11-09T00:10:43.163Z,18.60
2022-11-09T00:13:14.957Z,16.50
2022-11-09T00:15:46.661Z,19.40
2022-11-09T00:18:18.432Z,17.50
2022-11-09T00:20:50.114Z,17.40
2022-11-09T00:23:23.367Z,17.40
2022-11-09T00:25:55.449Z,19.70
2022-11-09T00:28:27.132Z,19.50
2022-11-09T00:31:02.956Z,18.20
2022-11-09T00:33:35.141Z,18.00
2022-11-09T00:36:12.943Z,20.10
2022-11-09T00:38:49.026Z,19.60
2022-11-09T00:41:20.995Z,17.40
2022-11-09T00:43:53.858Z,17.40
2022-11-09T00:46:25.636Z,17.70
2022-11-09T00:48:58.354Z,19.40
2022-11-09T00:51:30.087Z,19.70
2022-11-09T00:54:01.692Z,19.30
2022-11-09T00:56:33.439Z,19.10
2022-11-09T00:59:05.185Z,20.50
2022-11-09T01:01:37.116Z,19.80
2022-11-09T01:04:08.867Z,19.90
2022-11-09T01:06:40.502Z,21.40
2022-11-09T01:09:12.639Z,20.50
2022-11-09T01:11:44.418Z,20.90
2022-11-09T01:14:16.297Z,19.10
2022-11-09T01:16:48.031Z,17.80
2022-11-09T01:19:19.910Z,17.90
2022-11-09T01:21:51.579Z,19.30
2022-11-09T01:24:23.454Z,17.80
2022-11-09T01:26:55.154Z,19.00
2022-11-09T01:29:27.048Z,18.90
2022-11-09T01:31:59.043Z,17.70
2022-11-09T01:34:33.008Z,18.50
2022-11-09T01:37:04.836Z,18.20
2022-11-09T01:39:36.663Z,17.80
2022-11-09T01:42:08.722Z,18.00
2022-11-09T01:44:41.617Z,16.80
2022-11-09T01:47:22.987Z,15.70
2022-11-09T01:49:59.326Z,14.10
2022-11-09T01:52:37.455Z,14.50
2022-11-09T01:55:12.829Z,15.30
2022-11-09T01:57:48.993Z,16.20
2022-11-09T02:00:21.888Z,15.00
2022-11-09T02:02:57.242Z,15.80
2022-11-09T02:05:34.226Z,15.50
2022-11-09T02:08:08.753Z,15.90
2022-11-09T02:10:48.498Z,16.80
2022-11-09T02:13:23.858Z,15.10
2022-11-09T02:15:56.268Z,15.40
2022-11-09T02:18:30.337Z,15.00
2022-11-09T02:21:01.996Z,14.90
2022-11-09T02:23:33.730Z,14.30
2022-11-09T02:26:10.945Z,13.40
2022-11-09T02:28:43.659Z,14.80
2022-11-09T02:31:18.721Z,16.20
2022-11-09T02:34:02.086Z,15.70
2022-11-09T02:36:33.874Z,15.70
2022-11-09T02:39:06.719Z,14.90
2022-11-09T02:41:45.825Z,16.00
2022-11-09T02:44:19.662Z,17.40
2022-11-09T02:46:51.630Z,19.20
2022-11-09T02:49:23.375Z,20.20
2022-11-09T02:51:55.095Z,19.90
2022-11-09T02:54:26.824Z,21.10
2022-11-09T02:56:58.543Z,20.30
2022-11-09T02:59:30.320Z,23.00
2022-11-09T03:02:02.166Z,22.60
2022-11-09T03:04:33.988Z,24.20
2022-11-09T03:07:05.766Z,23.60
2022-11-09T03:09:37.582Z,25.20
2022-11-09T03:12:23.937Z,24.20
2022-11-09T03:14:56.635Z,24.10
2022-11-09T03:17:28.814Z,25.30
2022-11-09T03:20:00.518Z,27.10
2022-11-09T03:22:32.288Z,28.20
2022-11-09T03:25:04.127Z,25.10
2022-11-09T03:27:35.730Z,24.40
2022-11-09T03:30:09.523Z,25.40
2022-11-09T03:32:41.345Z,27.70
2022-11-09T03:35:13.602Z,32.40
2022-11-09T03:37:45.442Z,30.20
2022-11-09T03:40:22.575Z,31.10
2022-11-09T03:42:54.193Z,27.90
2022-11-09T03:45:27.817Z,27.30
2022-11-09T03:48:00.507Z,28.80
2022-11-09T03:50:34.581Z,27.70
2022-11-09T03:53:06.201Z,26.70
2022-11-09T03:55:38.346Z,27.40
2022-11-09T03:58:12.298Z,26.80
2022-11-09T04:00:44.043Z,27.20
2022-11-09T04:03:15.776Z,28.00
2022-11-09T04:05:47.508Z,27.40
2022-11-09T04:08:19.275Z,26.10
2022-11-09T04:10:50.941Z,27.20
2022-11-09T04:13:22.858Z,26.60
2022-11-09T04:15:54.590Z,30.90
2022-11-09T04:18:26.267Z,32.20
2022-11-09T04:21:01.554Z,31.80
2022-11-09T04:23:33.216Z,31.00
2022-11-09T04:26:04.873Z,31.90
2022-11-09T04:28:36.610Z,31.90
2022-11-09T04:31:08.782Z,31.80
2022-11-09T04:33:40.386Z,31.50
2022-11-09T04:36:12.876Z,32.10
2022-11-09T04:38:44.759Z,31.60
2022-11-09T04:41:16.799Z,31.30
2022-11-09T04:43:48.419Z,27.60
2022-11-09T04:46:20.176Z,27.10
2022-11-09T04:48:51.943Z,25.70
2022-11-09T04:51:23.859Z,26.10
2022-11-09T04:53:56.275Z,26.80
2022-11-09T04:56:28.031Z,30.00
2022-11-09T04:58:59.851Z,31.00
2022-11-09T05:01:31.763Z,31.90
2022-11-09T05:04:03.486Z,31.90
2022-11-09T05:06:35.340Z,31.00
2022-11-09T05:09:09.201Z,30.10
2022-11-09T05:11:41.046Z,32.50
2022-11-09T05:14:12.738Z,31.00
2022-11-09T05:16:44.565Z,31.00
2022-11-09T05:19:16.286Z,30.60
2022-11-09T05:21:49.104Z,32.80
2022-11-09T05:24:20.854Z,31.30
2022-11-09T05:26:53.839Z,28.10
2022-11-09T05:29:25.529Z,29.20
2022-11-09T05:31:57.151Z,29.40
2022-11-09T05:34:28.861Z,29.80
2022-11-09T05:37:03.500Z,33.70
2022-11-09T05:39:36.143Z,33.70
2022-11-09T05:42:10.199Z,31.70
2022-11-09T05:44:42.038Z,31.60
2022-11-09T05:47:13.740Z,32.60
2022-11-09T05:49:45.481Z,32.40
2022-11-09T05:52:17.377Z,33.00
2022-11-09T05:54:49.135Z,33.90
2022-11-09T05:57:20.789Z,34.40
2022-11-09T05:59:52.564Z,33.30
2022-11-09T06:02:24.999Z,33.40
2022-11-09T06:04:56.900Z,30.90
2022-11-09T06:07:28.557Z,30.20
2022-11-09T06:10:00.247Z,29.90
2022-11-09T06:12:32.096Z,29.90
2022-11-09T06:15:03.742Z,33.00
2022-11-09T06:17:35.442Z,30.60
2022-11-09T06:20:08.958Z,31.70
2022-11-09T06:22:40.646Z,30.10
2022-11-09T06:25:12.634Z,28.30
2022-11-09T06:27:44.445Z,29.40
2022-11-09T06:30:17.112Z,30.30
2022-11-09T06:32:48.795Z,30.00
2022-11-09T06:35:22.481Z,30.10
2022-11-09T06:40:28.803Z,26.50
2022-11-09T06:43:02.404Z,25.90
2022-11-09T06:45:34.441Z,23.90
2022-11-09T06:48:06.734Z,25.80
2022-11-09T06:50:38.401Z,23.10
2022-11-09T06:53:11.561Z,25.90
2022-11-09T06:55:49.066Z,27.30
2022-11-09T06:58:22.323Z,28.60
2022-11-09T07:00:54.238Z,28.30
2022-11-09T07:03:26.858Z,26.80
2022-11-09T07:05:58.609Z,29.40
2022-11-09T07:08:30.365Z,30.30
2022-11-09T07:11:07.597Z,30.00
2022-11-09T07:13:40.057Z,29.20
2022-11-09T07:16:12.994Z,30.10
2022-11-09T07:18:45.823Z,27.60
2022-11-09T07:21:17.844Z,27.50
2022-11-09T07:23:53.147Z,28.50
2022-11-09T07:26:25.806Z,26.80
2022-11-09T07:28:57.603Z,23.20
2022-11-09T07:31:29.388Z,23.60
2022-11-09T07:34:04.907Z,22.80
2022-11-09T07:36:37.024Z,26.30
2022-11-09T07:39:08.818Z,23.90
2022-11-09T07:41:40.616Z,23.60
2022-11-09T07:44:14.681Z,21.60
2022-11-09T07:46:47.464Z,22.40
2022-11-09T07:49:19.859Z,21.70
2022-11-09T07:51:51.716Z,20.60
2022-11-09T07:54:23.601Z,19.60
2022-11-09T07:56:55.509Z,20.00
2022-11-09T07:59:27.419Z,21.70
2022-11-09T08:01:59.481Z,21.70
2022-11-09T08:04:31.354Z,20.50
2022-11-09T08:07:02.947Z,21.60
2022-11-09T08:09:34.611Z,20.10
2022-11-09T08:12:07.110Z,20.60
2022-11-09T08:14:38.743Z,19.80
2022-11-09T08:17:10.421Z,18.20
2022-11-09T08:19:42.035Z,19.10
2022-11-09T08:22:13.671Z,18.20
2022-11-09T08:24:45.435Z,18.90
2022-11-09T08:27:17.068Z,20.10
2022-11-09T08:29:49.221Z,17.80
2022-11-09T08:32:20.846Z,17.60
2022-11-09T08:34:52.630Z,18.10
2022-11-09T08:37:24.329Z,19.20
2022-11-09T08:39:56.118Z,17.50
2022-11-09T08:42:28.037Z,17.20
2022-11-09T08:44:59.900Z,17.60
2022-11-09T08:47:32.318Z,16.60
2022-11-09T08:50:05.451Z,18.80
2022-11-09T08:52:37.536Z,17.60
2022-11-09T08:55:10.748Z,18.30
2022-11-09T08:57:42.355Z,16.90
2022-11-09T09:00:16.553Z,16.50
2022-11-09T09:02:48.184Z,15.40
2022-11-09T09:05:20.712Z,18.20
2022-11-09T09:07:52.392Z,17.00
2022-11-09T09:10:24.039Z,17.50
2022-11-09T09:12:56.168Z,17.70
2022-11-09T09:15:27.837Z,15.80
2022-11-09T09:18:02.110Z,16.10
2022-11-09T09:20:34.360Z,15.60
2022-11-09T09:23:06.066Z,15.10
2022-11-09T09:25:37.991Z,16.60
2022-11-09T09:28:09.978Z,16.90
2022-11-09T09:30:42.782Z,15.90
2022-11-09T09:33:14.420Z,15.60
2022-11-09T09:35:46.050Z,15.30
2022-11-09T09:38:18.955Z,15.00
2022-11-09T09:41:00.859Z,14.90
2022-11-09T09:43:43.203Z,14.10
2022-11-09T09:46:25.776Z,14.00
2022-11-09T09:49:02.138Z,13.70
2022-11-09T09:51:40.261Z,13.90
2022-11-09T09:54:18.188Z,14.70
2022-11-09T09:56:55.419Z,13.40
2022-11-09T09:59:46.759Z,12.60
2022-11-09T10:02:25.563Z,13.10
2022-11-09T10:04:59.464Z,13.90
2022-11-09T10:07:36.172Z,14.00
2022-11-09T10:10:24.189Z,13.90
2022-11-09T10:13:21.586Z,12.70
2022-11-09T10:16:02.716Z,12.50
2022-11-09T10:18:45.972Z,11.40
2022-11-09T10:21:33.843Z,11.90
2022-11-09T10:24:22.030Z,11.20
2022-11-09T10:26:56.571Z,10.90
2022-11-09T10:29:31.250Z,10.90
2022-11-09T10:32:11.810Z,10.20
2022-11-09T10:34:50.262Z,10.00
2022-11-09T10:37:27.284Z,11.10
2022-11-09T10:40:04.415Z,10.30
2022-11-09T10:42:36.547Z,9.70
2022-11-09T10:45:18.966Z,10.60
2022-11-09T10:47:53.930Z,9.50
2022-11-09T10:50:31.609Z,11.60
2022-11-09T10:53:16.897Z,11.00
2022-11-09T10:55:56.574Z,10.60
2022-11-09T10:58:35.405Z,10.80
2022-11-09T11:01:14.523Z,10.10
2022-11-09T11:03:50.350Z,10.60
2022-11-09T11:06:31.933Z,10.90
2022-11-09T11:09:17.972Z,10.60
2022-11-09T11:11:49.974Z,8.50
2022-11-09T11:14:43.330Z,10.10
2022-11-09T11:17:26.662Z,9.30
2022-11-09T11:20:19.015Z,9.40
2022-11-09T11:22:50.842Z,8.80
2022-11-09T11:25:25.015Z,7.50
2022-11-09T11:28:04.356Z,8.60
2022-11-09T11:30:40.571Z,9.70
2022-11-09T11:33:18.945Z,8.60
2022-11-09T11:36:04.772Z,9.10
2022-11-09T11:38:42.776Z,9.10
2022-11-09T11:41:33.316Z,9.20
2022-11-09T11:44:19.455Z,9.00
2022-11-09T11:47:02.669Z,9.90
2022-11-09T11:49:58.359Z,9.00
2022-11-09T11:52:42.677Z,9.40
2022-11-09T11:55:27.054Z,7.90
2022-11-09T11:58:23.009Z,10.90
2022-11-09T12:01:09.455Z,10.10
2022-11-09T12:03:58.003Z,10.70
2022-11-09T12:06:50.363Z,10.30
2022-11-09T12:09:37.078Z,11.70
2022-11-09T12:12:20.151Z,9.90
2022-11-09T12:15:06.917Z,11.40
2022-11-09T12:17:47.694Z,10.10
2022-11-09T12:20:27.880Z,9.20
2022-11-09T12:23:20.079Z,8.40
2022-11-09T12:25:59.414Z,8.60
2022-11-09T12:29:01.406Z,9.20
2022-11-09T12:31:46.114Z,9.70
2022-11-09T12:34:24.989Z,9.50
2022-11-09T12:37:05.644Z,9.50
2022-11-09T12:39:44.357Z,9.90
2022-11-09T12:42:18.364Z,10.20
2022-11-09T12:45:00.146Z,9.30
2022-11-09T12:47:35.733Z,9.10
2022-11-09T12:50:13.294Z,8.50
2022-11-09T12:52:48.897Z,8.60
2022-11-09T12:55:23.860Z,8.10
2022-11-09T12:58:00.880Z,9.20
2022-11-09T13:00:54.843Z,9.60
2022-11-09T13:03:30.001Z,9.00
2022-11-09T13:06:21.592Z,9.60
2022-11-09T13:09:02.583Z,9.50
2022-11-09T13:11:41.125Z,9.20
2022-11-09T13:14:37.974Z,8.30
2022-11-09T13:17:44.314Z,9.30
2022-11-09T13:20:55.285Z,8.80
2022-11-09T13:26:59.370Z,8.30
2022-11-09T13:29:56.351Z,8.00
2022-11-09T13:32:33.873Z,9.50
2022-11-09T13:35:28.784Z,9.30
2022-11-09T13:38:02.711Z,9.10
2022-11-09T13:40:48.340Z,8.80
2022-11-09T13:43:30.066Z,9.30
2022-11-09T13:46:04.908Z,9.40
2022-11-09T13:48:42.208Z,9.50
2022-11-09T13:51:16.571Z,8.90
2022-11-09T13:53:55.090Z,9.70
2022-11-09T13:56:38.107Z,8.70
2022-11-09T13:59:18.679Z,9.10
2022-11-09T14:01:54.274Z,9.60
2022-11-09T14:04:28.617Z,8.40
2022-11-09T14:07:06.348Z,10.40
2022-11-09T14:09:58.576Z,11.00
2022-11-09T14:12:42.444Z,11.30
2022-11-09T14:15:25.404Z,10.30
2022-11-09T14:18:10.828Z,9.40
2022-11-09T14:20:51.967Z,9.50
2022-11-09T14:23:32.242Z,9.60
2022-11-09T14:26:11.555Z,9.50
2022-11-09T14:28:43.546Z,9.60
2022-11-09T14:31:26.830Z,10.00
2022-11-09T14:34:08.232Z,10.00
2022-11-09T14:36:43.887Z,10.40
2022-11-09T14:39:26.492Z,10.30
2022-11-09T14:41:58.923Z,10.70
2022-11-09T14:44:35.783Z,11.60
2022-11-09T14:47:20.086Z,11.40
2022-11-09T14:49:53.203Z,10.80
2022-11-09T14:52:30.522Z,11.00
2022-11-09T14:55:02.476Z,11.80
2022-11-09T14:57:35.100Z,10.40
2022-11-09T15:00:25.874Z,10.90
2022-11-09T15:02:57.902Z,11.40
2022-11-09T15:05:39.001Z,11.40
2022-11-09T15:08:21.600Z,11.00
2022-11-09T15:10:55.293Z,12.20
2022-11-09T15:13:34.997Z,11.20
2022-11-09T15:16:09.297Z,12.30
2022-11-09T15:18:52.659Z,12.40
2022-11-09T15:21:38.912Z,12.90
2022-11-09T15:24:18.361Z,13.30
2022-11-09T15:26:53.275Z,12.40
2022-11-09T15:29:37.950Z,14.30
2022-11-09T15:32:18.995Z,13.90
2022-11-09T15:35:00.284Z,14.20
2022-11-09T15:37:56.416Z,14.50
2022-11-09T15:40:28.916Z,14.00
2022-11-09T15:43:00.641Z,15.20
2022-11-09T15:45:32.343Z,15.20
2022-11-09T15:48:04.825Z,14.40
2022-11-09T15:50:36.878Z,14.90
2022-11-09T15:53:08.583Z,14.70
2022-11-09T15:55:40.378Z,16.50
2022-11-09T15:58:16.859Z,16.70
2022-11-09T16:00:48.663Z,15.70
2022-11-09T16:03:21.288Z,15.50
2022-11-09T16:05:53.581Z,15.90
2022-11-09T16:08:25.321Z,17.70
2022-11-09T16:10:57.025Z,15.80
2022-11-09T16:13:28.774Z,17.60
2022-11-09T16:16:07.590Z,16.70
2022-11-09T16:18:41.157Z,16.60
2022-11-09T16:21:15.158Z,17.00
2022-11-09T16:23:46.867Z,17.60
2022-11-09T16:26:20.742Z,16.90
2022-11-09T16:28:52.610Z,16.40
2022-11-09T16:31:48.200Z,16.40
2022-11-09T16:34:16.507Z,16.60
2022-11-09T16:36:55.485Z,16.40
2022-11-09T16:39:29.273Z,16.70
2022-11-09T16:42:04.102Z,16.60
2022-11-09T16:44:38.788Z,17.10
2022-11-09T16:47:14.330Z,16.50
2022-11-09T16:49:46.513Z,16.40
2022-11-09T16:52:18.393Z,16.90
2022-11-09T16:54:50.030Z,18.60
2022-11-09T16:57:21.701Z,18.00
2022-11-09T16:59:53.620Z,19.10
2022-11-09T17:02:27.605Z,19.70
2022-11-09T17:04:59.256Z,18.60
2022-11-09T17:07:31.808Z,20.20
2022-11-09T17:10:03.415Z,21.00
2022-11-09T17:12:35.683Z,20.80
2022-11-09T17:15:09.351Z,28.00
2022-11-09T17:20:13.658Z,22.80
2022-11-09T17:22:46.415Z,19.20
2022-11-09T17:25:18.423Z,20.00
2022-11-09T17:27:50.062Z,21.70
2022-11-09T17:30:21.826Z,23.00
2022-11-09T17:32:54.582Z,23.40
2022-11-09T17:35:26.621Z,31.90
2022-11-09T17:37:58.555Z,28.90
2022-11-09T17:40:30.226Z,24.20
2022-11-09T17:43:02.006Z,19.90
2022-11-09T17:45:35.756Z,19.60
2022-11-09T17:50:38.079Z,18.40
2022-11-09T17:53:09.704Z,20.20
2022-11-09T17:55:41.579Z,18.80
2022-11-09T17:58:13.319Z,20.80
2022-11-09T18:00:45.405Z,19.50
2022-11-09T18:03:17.117Z,18.10
2022-11-09T18:05:48.802Z,18.60
2022-11-09T18:08:20.684Z,18.30
2022-11-09T18:10:52.500Z,20.00
2022-11-09T18:13:24.128Z,20.50
2022-11-09T18:15:55.833Z,23.20
2022-11-09T18:18:28.950Z,21.00
2022-11-09T18:21:00.649Z,21.50
2022-11-09T18:23:32.488Z,24.10
2022-11-09T18:26:05.202Z,22.80
2022-11-09T18:28:37.604Z,23.80
2022-11-09T18:31:11.746Z,25.10
2022-11-09T18:33:44.259Z,20.00
2022-11-09T18:36:18.662Z,23.80
2022-11-09T18:38:52.116Z,23.40
2022-11-09T18:41:25.215Z,21.90
2022-11-09T18:43:58.383Z,22.40
2022-11-09T18:46:33.395Z,21.20
2022-11-09T18:49:10.143Z,21.80
2022-11-09T18:51:45.622Z,20.30
2022-11-09T18:54:17.282Z,20.70
2022-11-09T18:56:49.092Z,19.70
2022-11-09T18:59:20.938Z,21.50
2022-11-09T19:01:52.570Z,20.50
2022-11-09T19:04:24.145Z,22.30
2022-11-09T19:06:56.017Z,21.90
2022-11-09T19:09:31.575Z,25.30
2022-11-09T19:12:08.107Z,25.90
2022-11-09T19:14:41.702Z,26.50
2022-11-09T19:17:16.305Z,26.80
2022-11-09T19:19:47.990Z,27.80
2022-11-09T19:22:20.630Z,29.60
2022-11-09T19:24:53.578Z,28.50
2022-11-09T19:27:28.932Z,22.90
2022-11-09T19:30:06.247Z,22.10
2022-11-09T19:32:39.717Z,24.00
2022-11-09T19:35:11.787Z,22.10
2022-11-09T19:37:43.571Z,22.50
2022-11-09T19:40:16.008Z,22.20
2022-11-09T19:42:48.239Z,22.30
2022-11-09T19:45:20.088Z,21.40
2022-11-09T19:47:53.059Z,20.60
2022-11-09T19:50:25.337Z,23.10
2022-11-09T19:52:57.064Z,23.30
2022-11-09T19:55:29.023Z,23.60
2022-11-09T19:58:00.766Z,22.00
2022-11-09T20:00:32.784Z,22.00
2022-11-09T20:03:04.907Z,19.20
2022-11-09T20:05:37.867Z,19.70
2022-11-09T20:08:09.597Z,21.50
2022-11-09T20:10:41.359Z,21.30
2022-11-09T20:13:13.344Z,20.50
2022-11-09T20:15:45.007Z,19.70
2022-11-09T20:18:16.751Z,20.40
2022-11-09T20:20:48.481Z,21.30
2022-11-09T20:23:21.693Z,21.10
2022-11-09T20:25:53.633Z,21.30
2022-11-09T20:28:25.407Z,21.30
2022-11-09T20:30:57.496Z,21.30
2022-11-09T20:33:29.323Z,22.70
2022-11-09T20:36:01.127Z,21.50
2022-11-09T20:38:33.062Z,21.20
2022-11-09T20:41:06.667Z,20.30
2022-11-09T20:43:38.832Z,20.30
2022-11-09T20:46:24.014Z,21.90
2022-11-09T20:48:56.065Z,22.70
2022-11-09T20:51:28.949Z,21.80
2022-11-09T20:54:06.556Z,22.30
2022-11-09T20:56:40.359Z,21.50
2022-11-09T20:59:12.512Z,22.70
2022-11-09T21:01:45.880Z,20.90
2022-11-09T21:04:17.737Z,23.20
2022-11-09T21:06:49.831Z,21.20
2022-11-09T21:09:21.727Z,21.80
2022-11-09T21:12:11.299Z,22.40
2022-11-09T21:14:44.907Z,19.80
2022-11-09T21:17:17.351Z,19.10
2022-11-09T21:19:49.144Z,17.80
2022-11-09T21:22:20.859Z,19.70
2022-11-09T21:25:24.919Z,19.00
2022-11-09T21:28:14.180Z,18.50
2022-11-09T21:30:45.887Z,18.70
2022-11-09T21:33:19.361Z,17.90
2022-11-09T21:35:51.211Z,17.60
2022-11-09T21:38:23.365Z,18.00
2022-11-09T21:40:55.690Z,18.30
2022-11-09T21:43:27.396Z,18.00
2022-11-09T21:45:59.274Z,16.70
2022-11-09T21:48:30.918Z,19.80
2022-11-09T21:51:02.718Z,16.60
2022-11-09T21:53:37.104Z,16.40
2022-11-09T21:56:10.198Z,14.50
2022-11-09T21:58:41.802Z,15.80
2022-11-09T22:01:13.600Z,16.40
2022-11-09T22:03:45.321Z,16.00
2022-11-09T22:06:17.634Z,16.80
2022-11-09T22:08:51.470Z,16.60
2022-11-09T22:14:36.330Z,15.00
2022-11-09T22:17:09.417Z,16.60
2022-11-09T22:19:59.025Z,16.80
2022-11-09T22:22:33.963Z,15.70
2022-11-09T22:25:06.618Z,15.90
2022-11-09T22:27:38.503Z,16.30
2022-11-09T22:30:12.077Z,13.50
2022-11-09T22:32:43.825Z,16.20
2022-11-09T22:35:15.625Z,15.70
2022-11-09T22:37:47.567Z,16.30
2022-11-09T22:40:19.757Z,14.70
2022-11-09T22:42:58.214Z,15.40
2022-11-09T22:45:29.831Z,16.20
2022-11-09T22:48:01.670Z,16.50
2022-11-09T22:50:33.319Z,15.00
2022-11-09T22:53:05.294Z,15.30
2022-11-09T22:55:36.940Z,15.40
2022-11-09T22:58:08.786Z,15.20
2022-11-09T23:00:41.678Z,15.30
2022-11-09T23:03:13.474Z,15.60
2022-11-09T23:05:45.799Z,13.80
2022-11-09T23:08:17.503Z,14.80
2022-11-09T23:11:11.486Z,15.70
2022-11-09T23:13:44.650Z,14.50
2022-11-09T23:16:16.425Z,16.10
2022-11-09T23:18:54.783Z,15.80
2022-11-09T23:21:29.841Z,14.40
2022-11-09T23:26:34.324Z,14.70
2022-11-09T23:29:06.072Z,13.60
2022-11-09T23:31:37.887Z,15.10
2022-11-09T23:34:11.227Z,14.50
2022-11-09T23:36:43.082Z,12.40
2022-11-09T23:39:14.927Z,13.70
2022-11-09T23:41:46.678Z,13.80
2022-11-09T23:44:18.410Z,14.20
2022-11-09T23:46:51.034Z,14.40
2022-11-09T23:49:22.812Z,13.40
2022-11-09T23:51:54.717Z,13.90
2022-11-09T23:54:26.557Z,13.80
2022-11-09T23:56:58.409Z,15.30
2022-11-09T23:59:30.184Z,14.80
